This is the latest recevied weather packets stored in our database for station/object CE3JSG-13. If no packets are shown the sender has not sent any weather packets the latest 10 day(s).
| Time | Temp. | Humidity | Pressure | Rain* | Wind** | Luminosity | Snow |
|---|---|---|---|---|---|---|---|
| 1777555155 | 16.67° C | 57% | 1011 hPa | - | - | - | - |
| 1777554735 | 16.67° C | 58% | 1011 hPa | - | - | - | - |
| 1777554315 | 16.67° C | 60% | 1010.3 hPa | - | - | - | - |
| 1777553895 | 15.56° C | 62% | 1010.6 hPa | - | - | - | - |
| 1777553475 | 15° C | 63% | 1011.4 hPa | - | - | - | - |
| 1777553055 | 15° C | 64% | 1011.5 hPa | - | - | - | - |
| 1777552635 | 15° C | 66% | 1011.2 hPa | - | - | - | - |
| 1777552215 | 15° C | 67% | 1011.2 hPa | - | - | - | - |
| 1777551795 | 14.44° C | 68% | 1011.6 hPa | - | - | - | - |
| 1777551375 | 14.44° C | 70% | 1011.5 hPa | - | - | - | - |
| 1777550955 | 13.89° C | 70% | 1011.4 hPa | - | - | - | - |
| 1777550535 | 13.89° C | 72% | 1011.6 hPa | - | - | - | - |
| 1777550115 | 13.33° C | 74% | 1012.1 hPa | - | - | - | - |
| 1777549695 | 13.33° C | 75% | 1011.4 hPa | - | - | - | - |
| 1777549275 | 12.78° C | 76% | 1011.7 hPa | - | - | - | - |
| 1777548855 | 12.78° C | 78% | 1011.9 hPa | - | - | - | - |
| 1777548435 | 12.78° C | 79% | 1012.2 hPa | - | - | - | - |
| 1777548015 | 12.78° C | 78% | 1011.8 hPa | - | - | - | - |
| 1777547595 | 12.78° C | 76% | 1012.1 hPa | - | - | - | - |
| 1777547175 | 12.78° C | 75% | 1012.1 hPa | - | - | - | - |
| 1777546755 | 12.78° C | 75% | 1012.2 hPa | - | - | - | - |
| 1777546335 | 12.78° C | 76% | 1012.8 hPa | - | - | - | - |
| 1777545915 | 13.33° C | 75% | 1011.8 hPa | - | - | - | - |
| 1777545495 | 12.78° C | 75% | 1012 hPa | - | - | - | - |
| 1777545075 | 13.33° C | 74% | 1011.8 hPa | - | - | - | - |
* Rain since midnight (hover to see other rain measurements)
** Current wind speed in m/s (hover to see current wind gust speed)